sensor_id;sensor_type;location;lat;lon;timestamp;pressure;altitude;pressure_sealevel;temperature;humidity
57610;BME280;43435;46.186;9.024;2023-06-22T08:48:45;98957.38;;;27.01;54.48
57610;BME280;43435;46.186;9.024;2023-06-22T08:51:10;98952.44;;;27.03;51.62
57610;BME280;43435;46.186;9.024;2023-06-22T08:53:36;98958.56;;;26.95;53.97
57610;BME280;43435;46.186;9.024;2023-06-22T08:56:01;98952.66;;;27.20;54.21
57610;BME280;43435;46.186;9.024;2023-06-22T08:58:27;98949.47;;;27.32;53.18
57610;BME280;43435;46.186;9.024;2023-06-22T09:00:52;98951.16;;;27.28;52.94
57610;BME280;43435;46.186;9.024;2023-06-22T09:03:17;98953.22;;;27.36;53.23
57610;BME280;43435;46.186;9.024;2023-06-22T09:05:43;98958.56;;;27.28;53.96
57610;BME280;43435;46.186;9.024;2023-06-22T09:08:08;98948.84;;;27.49;52.91
57610;BME280;43435;46.186;9.024;2023-06-22T09:10:33;98948.34;;;27.47;53.68
57610;BME280;43435;46.186;9.024;2023-06-22T09:12:58;98949.75;;;27.44;54.36
57610;BME280;43435;46.186;9.024;2023-06-22T09:15:24;98944.97;;;27.50;54.32
57610;BME280;43435;46.186;9.024;2023-06-22T09:17:49;98941.34;;;27.55;54.72
57610;BME280;43435;46.186;9.024;2023-06-22T09:20:15;98937.50;;;27.69;53.70
57610;BME280;43435;46.186;9.024;2023-06-22T09:22:40;98933.81;;;27.74;54.73
57610;BME280;43435;46.186;9.024;2023-06-22T09:25:06;98930.72;;;28.17;52.49
57610;BME280;43435;46.186;9.024;2023-06-22T09:27:32;98933.75;;;28.52;49.30
57610;BME280;43435;46.186;9.024;2023-06-22T09:29:57;98932.81;;;28.56;50.47
57610;BME280;43435;46.186;9.024;2023-06-22T09:32:24;98929.97;;;28.39;51.48
57610;BME280;43435;46.186;9.024;2023-06-22T09:34:49;98926.28;;;28.07;53.55
57610;BME280;43435;46.186;9.024;2023-06-22T09:37:15;98928.66;;;27.86;54.05
57610;BME280;43435;46.186;9.024;2023-06-22T09:39:40;98913.13;;;27.96;52.72
57610;BME280;43435;46.186;9.024;2023-06-22T09:42:06;98924.28;;;27.85;53.08
57610;BME280;43435;46.186;9.024;2023-06-22T17:15:34;98677.41;;;28.58;55.73
57610;BME280;43435;46.186;9.024;2023-06-22T17:18:04;98678.22;;;28.58;55.88
57610;BME280;43435;46.186;9.024;2023-06-22T17:20:30;98684.50;;;28.59;56.32
57610;BME280;43435;46.186;9.024;2023-06-22T17:22:56;98676.28;;;28.59;54.94
57610;BME280;43435;46.186;9.024;2023-06-22T17:25:21;98658.53;;;28.56;56.67
57610;BME280;43435;46.186;9.024;2023-06-22T17:27:49;98658.56;;;28.65;56.99
57610;BME280;43435;46.186;9.024;2023-06-22T17:30:15;98667.25;;;28.58;57.73
57610;BME280;43435;46.186;9.024;2023-06-22T17:32:45;98655.13;;;28.51;58.46
57610;BME280;43435;46.186;9.024;2023-06-22T17:35:11;98640.19;;;28.34;58.15
57610;BME280;43435;46.186;9.024;2023-06-22T17:37:56;98631.91;;;28.57;57.72
57610;BME280;43435;46.186;9.024;2023-06-22T17:40:23;98628.56;;;28.69;57.38
57610;BME280;43435;46.186;9.024;2023-06-22T17:42:49;98621.94;;;28.78;56.06
57610;BME280;43435;46.186;9.024;2023-06-22T17:45:17;98641.44;;;28.20;58.16
57610;BME280;43435;46.186;9.024;2023-06-22T17:47:46;98639.97;;;27.82;60.09
57610;BME280;43435;46.186;9.024;2023-06-22T17:50:12;98637.22;;;27.60;61.58
57610;BME280;43435;46.186;9.024;2023-06-22T17:52:37;98637.34;;;27.32;63.42
57610;BME280;43435;46.186;9.024;2023-06-22T17:55:03;98644.63;;;27.14;63.88
57610;BME280;43435;46.186;9.024;2023-06-22T17:57:38;98647.75;;;27.08;64.31
57610;BME280;43435;46.186;9.024;2023-06-22T18:00:05;98635.19;;;27.07;64.65
57610;BME280;43435;46.186;9.024;2023-06-22T18:02:36;98642.09;;;27.04;64.88
57610;BME280;43435;46.186;9.024;2023-06-22T18:05:02;98637.59;;;27.08;64.75
57610;BME280;43435;46.186;9.024;2023-06-22T18:07:29;98643.69;;;27.05;64.85
57610;BME280;43435;46.186;9.024;2023-06-22T18:09:56;98635.59;;;27.14;64.68
57610;BME280;43435;46.186;9.024;2023-06-22T18:12:23;98632.63;;;26.74;66.78
57610;BME280;43435;46.186;9.024;2023-06-22T18:14:50;98622.81;;;26.59;67.60
57610;BME280;43435;46.186;9.024;2023-06-22T18:17:16;98629.50;;;26.67;67.05
57610;BME280;43435;46.186;9.024;2023-06-22T18:19:44;98640.31;;;26.72;66.73
57610;BME280;43435;46.186;9.024;2023-06-22T18:22:10;98637.25;;;26.87;66.41
57610;BME280;43435;46.186;9.024;2023-06-22T18:24:36;98623.47;;;26.92;66.18
57610;BME280;43435;46.186;9.024;2023-06-22T18:27:04;98606.88;;;26.89;65.11
57610;BME280;43435;46.186;9.024;2023-06-22T18:29:30;98606.47;;;26.82;65.13
57610;BME280;43435;46.186;9.024;2023-06-22T18:31:56;98611.75;;;26.78;66.37
57610;BME280;43435;46.186;9.024;2023-06-22T18:34:22;98612.13;;;26.85;66.20
57610;BME280;43435;46.186;9.024;2023-06-22T18:36:52;98598.28;;;26.68;66.46
57610;BME280;43435;46.186;9.024;2023-06-22T18:39:20;98608.94;;;26.42;66.93
57610;BME280;43435;46.186;9.024;2023-06-22T18:41:54;98601.84;;;26.27;67.15
57610;BME280;43435;46.186;9.024;2023-06-22T18:44:42;98601.44;;;26.20;67.81
57610;BME280;43435;46.186;9.024;2023-06-22T18:47:07;98603.66;;;25.90;68.30
57610;BME280;43435;46.186;9.024;2023-06-22T18:49:44;98610.56;;;26.01;67.79
57610;BME280;43435;46.186;9.024;2023-06-22T18:57:28;98610.06;;;26.27;65.91
57610;BME280;43435;46.186;9.024;2023-06-22T19:00:01;98599.25;;;26.22;66.16
57610;BME280;43435;46.186;9.024;2023-06-22T19:05:37;98592.03;;;26.12;65.41
57610;BME280;43435;46.186;9.024;2023-06-22T19:08:04;98590.31;;;26.02;64.87
57610;BME280;43435;46.186;9.024;2023-06-22T19:10:41;98585.56;;;25.94;65.34
57610;BME280;43435;46.186;9.024;2023-06-22T19:13:27;98604.19;;;25.92;66.98
57610;BME280;43435;46.186;9.024;2023-06-22T19:16:04;98596.16;;;25.82;66.86
57610;BME280;43435;46.186;9.024;2023-06-22T19:18:35;98580.28;;;25.51;68.31
57610;BME280;43435;46.186;9.024;2023-06-22T19:23:34;98582.53;;;25.49;68.66
57610;BME280;43435;46.186;9.024;2023-06-22T19:26:00;98576.44;;;25.39;68.56
57610;BME280;43435;46.186;9.024;2023-06-22T19:28:29;98574.06;;;25.32;68.26
57610;BME280;43435;46.186;9.024;2023-06-22T19:30:56;98581.56;;;25.40;68.08
57610;BME280;43435;46.186;9.024;2023-06-22T19:33:23;98579.78;;;25.17;68.34
57610;BME280;43435;46.186;9.024;2023-06-22T19:35:51;98568.41;;;25.28;68.55
57610;BME280;43435;46.186;9.024;2023-06-22T19:38:18;98588.16;;;25.39;68.08
57610;BME280;43435;46.186;9.024;2023-06-22T19:40:44;98579.03;;;25.30;66.52
57610;BME280;43435;46.186;9.024;2023-06-22T19:43:12;98579.03;;;25.30;67.82
57610;BME280;43435;46.186;9.024;2023-06-22T19:45:39;98574.53;;;25.20;68.63
57610;BME280;43435;46.186;9.024;2023-06-22T19:48:07;98582.34;;;25.27;67.93
57610;BME280;43435;46.186;9.024;2023-06-22T19:50:33;98575.56;;;25.24;68.76
57610;BME280;43435;46.186;9.024;2023-06-22T19:52:59;98580.22;;;25.24;67.61
57610;BME280;43435;46.186;9.024;2023-06-22T19:55:24;98576.16;;;25.21;66.97
57610;BME280;43435;46.186;9.024;2023-06-22T19:57:50;98581.56;;;25.08;67.23
57610;BME280;43435;46.186;9.024;2023-06-22T20:00:20;98588.56;;;25.14;67.91
57610;BME280;43435;46.186;9.024;2023-06-22T20:02:50;98581.50;;;25.13;68.18
57610;BME280;43435;46.186;9.024;2023-06-22T20:05:19;98583.75;;;25.05;68.59
57610;BME280;43435;46.186;9.024;2023-06-22T20:07:45;98586.25;;;25.02;69.00
57610;BME280;43435;46.186;9.024;2023-06-22T20:10:16;98583.31;;;24.98;69.29
57610;BME280;43435;46.186;9.024;2023-06-22T20:12:46;98580.16;;;24.91;69.36
57610;BME280;43435;46.186;9.024;2023-06-22T20:15:19;98574.59;;;24.96;68.78
57610;BME280;43435;46.186;9.024;2023-06-22T20:17:52;98578.16;;;24.97;68.59
57610;BME280;43435;46.186;9.024;2023-06-22T20:20:21;98581.25;;;24.90;68.50
57610;BME280;43435;46.186;9.024;2023-06-22T20:22:47;98579.22;;;24.82;68.63
57610;BME280;43435;46.186;9.024;2023-06-22T20:25:23;98587.53;;;24.91;67.00
57610;BME280;43435;46.186;9.024;2023-06-22T20:27:49;98599.00;;;24.88;67.24
57610;BME280;43435;46.186;9.024;2023-06-22T20:30:17;98600.41;;;24.85;66.89
57610;BME280;43435;46.186;9.024;2023-06-22T20:32:50;98620.03;;;24.87;66.92
57610;BME280;43435;46.186;9.024;2023-06-22T20:35:17;98611.47;;;24.75;67.36
57610;BME280;43435;46.186;9.024;2023-06-22T20:37:44;98612.56;;;24.74;67.46
57610;BME280;43435;46.186;9.024;2023-06-22T20:40:11;98601.75;;;24.69;66.74
57610;BME280;43435;46.186;9.024;2023-06-22T20:42:37;98592.81;;;24.63;67.18
57610;BME280;43435;46.186;9.024;2023-06-22T20:45:04;98601.22;;;24.67;67.56
57610;BME280;43435;46.186;9.024;2023-06-22T20:47:30;98589.88;;;24.78;67.14
57610;BME280;43435;46.186;9.024;2023-06-22T20:49:55;98585.47;;;24.82;66.91
57610;BME280;43435;46.186;9.024;2023-06-22T20:52:27;98588.03;;;24.93;66.84
57610;BME280;43435;46.186;9.024;2023-06-22T20:54:52;98586.03;;;24.98;67.36
57610;BME280;43435;46.186;9.024;2023-06-22T20:57:19;98578.38;;;25.00;67.30
57610;BME280;43435;46.186;9.024;2023-06-22T20:59:45;98567.47;;;25.00;67.70
57610;BME280;43435;46.186;9.024;2023-06-22T21:02:10;98558.47;;;25.00;67.05
57610;BME280;43435;46.186;9.024;2023-06-22T21:04:36;98541.88;;;24.96;66.91
57610;BME280;43435;46.186;9.024;2023-06-22T21:07:01;98532.59;;;24.97;66.54
57610;BME280;43435;46.186;9.024;2023-06-22T21:09:27;98525.50;;;24.96;66.58
57610;BME280;43435;46.186;9.024;2023-06-22T21:11:52;98516.03;;;24.94;66.97
57610;BME280;43435;46.186;9.024;2023-06-22T21:14:18;98509.34;;;25.00;67.19
57610;BME280;43435;46.186;9.024;2023-06-22T21:16:43;98502.50;;;25.02;67.96
57610;BME280;43435;46.186;9.024;2023-06-22T21:19:09;98500.69;;;24.98;67.58
57610;BME280;43435;46.186;9.024;2023-06-22T21:21:34;98484.09;;;24.94;67.33
57610;BME280;43435;46.186;9.024;2023-06-22T21:23:59;98470.75;;;24.93;67.43
57610;BME280;43435;46.186;9.024;2023-06-22T21:26:25;98455.22;;;24.93;67.36
57610;BME280;43435;46.186;9.024;2023-06-22T21:28:51;98452.19;;;24.95;66.65
57610;BME280;43435;46.186;9.024;2023-06-22T21:31:17;98439.94;;;24.92;66.65
57610;BME280;43435;46.186;9.024;2023-06-22T21:33:42;98440.03;;;24.87;67.40
57610;BME280;43435;46.186;9.024;2023-06-22T21:36:08;98427.47;;;24.72;67.68
57610;BME280;43435;46.186;9.024;2023-06-22T21:38:33;98437.72;;;24.62;68.49
57610;BME280;43435;46.186;9.024;2023-06-22T21:40:58;98429.22;;;24.49;68.25
57610;BME280;43435;46.186;9.024;2023-06-22T21:43:23;98415.88;;;24.48;68.11
57610;BME280;43435;46.186;9.024;2023-06-22T21:45:49;98399.28;;;24.44;68.05
57610;BME280;43435;46.186;9.024;2023-06-22T21:48:16;98405.75;;;24.48;66.28
57610;BME280;43435;46.186;9.024;2023-06-22T21:50:42;98408.06;;;24.60;66.28
57610;BME280;43435;46.186;9.024;2023-06-22T21:53:07;98405.53;;;24.64;66.32
57610;BME280;43435;46.186;9.024;2023-06-22T21:55:32;98398.00;;;24.74;66.53
57610;BME280;43435;46.186;9.024;2023-06-22T21:57:57;98394.66;;;24.77;66.97
57610;BME280;43435;46.186;9.024;2023-06-22T22:00:23;98415.66;;;24.77;67.77
57610;BME280;43435;46.186;9.024;2023-06-22T22:02:48;98432.41;;;24.70;67.29
57610;BME280;43435;46.186;9.024;2023-06-22T22:05:14;98449.59;;;24.71;66.95
57610;BME280;43435;46.186;9.024;2023-06-22T22:07:39;98464.47;;;24.78;66.34
57610;BME280;43435;46.186;9.024;2023-06-22T22:10:05;98485.03;;;24.71;66.39
57610;BME280;43435;46.186;9.024;2023-06-22T22:12:30;98493.59;;;24.64;67.51
57610;BME280;43435;46.186;9.024;2023-06-22T22:14:56;98498.88;;;24.55;67.98
57610;BME280;43435;46.186;9.024;2023-06-22T22:17:21;98566.50;;;24.53;67.95
57610;BME280;43435;46.186;9.024;2023-06-22T22:19:46;98660.53;;;24.56;67.88
57610;BME280;43435;46.186;9.024;2023-06-22T22:22:12;98718.13;;;24.49;67.33
57610;BME280;43435;46.186;9.024;2023-06-22T22:24:38;98781.53;;;24.26;65.50
57610;BME280;43435;46.186;9.024;2023-06-22T22:27:04;98837.31;;;24.04;63.26
57610;BME280;43435;46.186;9.024;2023-06-22T22:29:29;98903.44;;;23.60;64.45
57610;BME280;43435;46.186;9.024;2023-06-22T22:31:55;98906.56;;;23.18;65.65
57610;BME280;43435;46.186;9.024;2023-06-22T22:34:20;98932.97;;;22.97;67.29
57610;BME280;43435;46.186;9.024;2023-06-22T22:36:45;98977.81;;;22.89;68.21
57610;BME280;43435;46.186;9.024;2023-06-22T22:39:20;98984.59;;;22.56;70.30
57610;BME280;43435;46.186;9.024;2023-06-22T22:41:53;99030.47;;;22.22;71.70
57610;BME280;43435;46.186;9.024;2023-06-22T22:44:18;98996.31;;;21.79;72.29
57610;BME280;43435;46.186;9.024;2023-06-22T22:46:44;98978.81;;;21.12;76.25
57610;BME280;43435;46.186;9.024;2023-06-22T22:49:09;99039.56;;;20.79;77.59
57610;BME280;43435;46.186;9.024;2023-06-22T22:51:34;99059.50;;;20.67;76.16
57610;BME280;43435;46.186;9.024;2023-06-22T22:54:00;99073.50;;;20.59;74.10
57610;BME280;43435;46.186;9.024;2023-06-22T22:56:25;99059.91;;;20.32;73.71
57610;BME280;43435;46.186;9.024;2023-06-22T22:58:50;99022.00;;;20.32;73.82
57610;BME280;43435;46.186;9.024;2023-06-22T23:01:15;99015.91;;;20.47;73.40
57610;BME280;43435;46.186;9.024;2023-06-22T23:03:41;99007.91;;;20.30;73.18
57610;BME280;43435;46.186;9.024;2023-06-22T23:06:06;99030.84;;;20.22;76.56
57610;BME280;43435;46.186;9.024;2023-06-22T23:08:32;99036.44;;;20.16;79.68
57610;BME280;43435;46.186;9.024;2023-06-22T23:10:58;99046.69;;;20.14;80.39
57610;BME280;43435;46.186;9.024;2023-06-22T23:13:23;99045.38;;;19.94;81.07
57610;BME280;43435;46.186;9.024;2023-06-22T23:15:48;99028.06;;;20.17;77.62
57610;BME280;43435;46.186;9.024;2023-06-22T23:18:15;99018.88;;;20.18;76.01
57610;BME280;43435;46.186;9.024;2023-06-22T23:20:40;99000.31;;;20.05;75.11
57610;BME280;43435;46.186;9.024;2023-06-22T23:23:06;98986.09;;;20.15;74.73
57610;BME280;43435;46.186;9.024;2023-06-22T23:25:31;98985.50;;;20.13;76.19
57610;BME280;43435;46.186;9.024;2023-06-22T23:27:57;98983.22;;;19.77;81.40
57610;BME280;43435;46.186;9.024;2023-06-22T23:30:23;98980.19;;;19.74;79.28
57610;BME280;43435;46.186;9.024;2023-06-22T23:32:52;98975.09;;;19.77;79.58
57610;BME280;43435;46.186;9.024;2023-06-22T23:35:18;98965.75;;;20.12;77.36
57610;BME280;43435;46.186;9.024;2023-06-22T23:37:43;98947.13;;;19.94;79.72
57610;BME280;43435;46.186;9.024;2023-06-22T23:40:12;98942.69;;;19.44;82.47
57610;BME280;43435;46.186;9.024;2023-06-22T23:42:44;98938.81;;;19.35;83.35
57610;BME280;43435;46.186;9.024;2023-06-22T23:45:17;98951.03;;;19.59;80.14
57610;BME280;43435;46.186;9.024;2023-06-22T23:47:50;98965.69;;;19.24;82.59
57610;BME280;43435;46.186;9.024;2023-06-22T23:50:16;98957.22;;;18.99;85.35
57610;BME280;43435;46.186;9.024;2023-06-22T23:52:43;98962.28;;;18.95;84.14
57610;BME280;43435;46.186;9.024;2023-06-22T23:55:13;98946.66;;;18.80;85.86
57610;BME280;43435;46.186;9.024;2023-06-22T23:57:38;98963.28;;;18.72;85.18
